Time;durP1;ratioP1;P1;durP2;ratioP2;P2;SDS_P1;SDS_P2;PMS_P1;PMS_P2;Temp;Humidity;BMP_temperature;BMP_pressure;BME280_temperature;BME280_humidity;BME280_pressure;Samples;Min_cycle;Max_cycle;Signal;HPM_P1;HPM_P2
2021/06/30 00:00:57;;;;;;;5.07;2.95;;;;;;;;;;5013099;28;20104;-70
2021/06/30 00:03:28;;;;;;;4.60;2.42;;;;;;;;;;5014138;28;20073;-70
2021/06/30 00:06:00;;;;;;;4.93;2.38;;;;;;;;;;5014139;28;20057;-70
2021/06/30 00:08:32;;;;;;;5.78;3.00;;;;;;;;;;5014285;28;20108;-70
2021/06/30 00:11:05;;;;;;;7.18;2.60;;;;;;;;;;5013753;28;20505;-70
2021/06/30 00:13:36;;;;;;;4.78;2.50;;;;;;;;;;5014242;28;20092;-70
2021/06/30 00:16:08;;;;;;;4.40;2.50;;;;;;;;;;5014055;28;20648;-70
2021/06/30 00:18:40;;;;;;;4.77;3.00;;;;;;;;;;5012692;28;20058;-70
2021/06/30 00:21:12;;;;;;;5.93;2.88;;;;;;;;;;4994188;28;20560;-70
2021/06/30 00:23:45;;;;;;;5.53;2.70;;;;;;;;;;4994417;28;20481;-70
2021/06/30 00:26:16;;;;;;;11.75;3.05;;;;;;;;;;5011690;28;20062;-70
2021/06/30 00:28:48;;;;;;;5.90;2.60;;;;;;;;;;5013814;28;20050;-69
2021/06/30 00:31:19;;;;;;;2.90;2.42;;;;;;;;;;5013711;28;20081;-70
2021/06/30 00:33:51;;;;;;;5.88;3.00;;;;;;;;;;5014091;28;20058;-70
2021/06/30 00:36:22;;;;;;;7.82;4.47;;;;;;;;;;5013017;28;20492;-70
2021/06/30 00:38:53;;;;;;;5.13;4.45;;;;;;;;;;4994062;28;20097;-70
2021/06/30 00:41:26;;;;;;;7.93;4.00;;;;;;;;;;4994013;28;20117;-70
2021/06/30 00:43:57;;;;;;;8.07;4.10;;;;;;;;;;4993972;28;20058;-70
2021/06/30 00:46:30;;;;;;;4.32;3.08;;;;;;;;;;4993980;28;20112;-70
2021/06/30 00:49:04;;;;;;;4.40;3.22;;;;;;;;;;4993303;28;20050;-70
2021/06/30 00:51:36;;;;;;;5.13;2.47;;;;;;;;;;4993762;28;20062;-70
2021/06/30 00:54:07;;;;;;;2.35;2.15;;;;;;;;;;4993970;28;20050;-70
2021/06/30 00:56:39;;;;;;;5.32;2.40;;;;;;;;;;5002907;28;20579;-70
2021/06/30 00:59:11;;;;;;;2.67;2.08;;;;;;;;;;5012070;28;20046;-70
2021/06/30 01:01:43;;;;;;;;;;;;;;;;;;5013490;28;20563;-70
2021/06/30 01:04:14;;;;;;;2.67;1.25;;;;;;;;;;5013094;28;19921;-70
2021/06/30 01:06:46;;;;;;;2.90;1.30;;;;;;;;;;5013090;28;20053;-70
2021/06/30 01:09:17;;;;;;;1.15;1.13;;;;;;;;;;5013014;28;20131;-70
2021/06/30 01:11:49;;;;;;;2.33;1.17;;;;;;;;;;5013092;28;20133;-70
2021/06/30 01:14:31;;;;;;;3.38;1.27;;;;;;;;;;5013186;28;20057;-70
2021/06/30 01:17:05;;;;;;;3.60;1.65;;;;;;;;;;5012941;28;20046;-70
2021/06/30 01:19:34;;;;;;;1.40;1.30;;;;;;;;;;5012883;28;20052;-70
2021/06/30 01:22:06;;;;;;;1.90;1.30;;;;;;;;;;5012647;28;20050;-70
2021/06/30 01:24:38;;;;;;;2.22;1.20;;;;;;;;;;5012849;28;20104;-70
2021/06/30 01:27:09;;;;;;;3.88;1.20;;;;;;;;;;5012655;28;20575;-70
2021/06/30 01:29:41;;;;;;;2.47;1.30;;;;;;;;;;5012469;28;20103;-70
2021/06/30 01:32:13;;;;;;;1.52;0.90;;;;;;;;;;5011613;28;20058;-70
2021/06/30 01:34:46;;;;;;;2.25;0.95;;;;;;;;;;5012760;28;20057;-70
2021/06/30 01:37:17;;;;;;;0.90;0.80;;;;;;;;;;5012664;28;20590;-70
2021/06/30 01:39:49;;;;;;;2.35;0.90;;;;;;;;;;5012320;28;20108;-70
2021/06/30 01:42:20;;;;;;;0.73;0.73;;;;;;;;;;5012483;28;20077;-70
2021/06/30 01:44:52;;;;;;;2.20;0.65;;;;;;;;;;5012470;28;20053;-70
2021/06/30 01:47:23;;;;;;;0.98;0.85;;;;;;;;;;5012583;28;20057;-70
2021/06/30 01:49:54;;;;;;;2.50;0.70;;;;;;;;;;5012221;28;20057;-70
2021/06/30 01:52:29;;;;;;;2.28;0.80;;;;;;;;;;5012567;28;20489;-70
2021/06/30 01:55:01;;;;;;;1.23;0.70;;;;;;;;;;5011146;28;20116;-70
2021/06/30 01:57:32;;;;;;;0.70;0.60;;;;;;;;;;5012465;28;20112;-70
2021/06/30 02:00:05;;;;;;;0.82;0.60;;;;;;;;;;5011182;28;20058;-70
2021/06/30 02:02:37;;;;;;;1.30;0.60;;;;;;;;;;5011996;28;20496;-70
2021/06/30 02:05:11;;;;;;;0.77;0.70;;;;;;;;;;5012198;28;20045;-70
2021/06/30 02:07:54;;;;;;;1.17;0.60;;;;;;;;;;5012289;28;20057;-70
2021/06/30 02:10:26;;;;;;;1.15;0.50;;;;;;;;;;5012119;28;20532;-70
2021/06/30 02:12:58;;;;;;;1.48;0.63;;;;;;;;;;5011987;28;20053;-70
2021/06/30 02:15:30;;;;;;;0.85;0.45;;;;;;;;;;5012094;28;20054;-70
2021/06/30 02:18:02;;;;;;;1.17;0.82;;;;;;;;;;5012144;28;20120;-70
2021/06/30 02:20:34;;;;;;;0.97;0.50;;;;;;;;;;5011936;28;20104;-70
2021/06/30 02:23:05;;;;;;;0.57;0.55;;;;;;;;;;5010645;28;20050;-70
2021/06/30 02:25:37;;;;;;;1.90;0.63;;;;;;;;;;5011960;28;20108;-70
2021/06/30 02:28:08;;;;;;;2.05;0.60;;;;;;;;;;5012118;28;20100;-70
2021/06/30 02:30:40;;;;;;;1.90;0.57;;;;;;;;;;5011954;28;20070;-70
2021/06/30 02:33:11;;;;;;;0.60;0.60;;;;;;;;;;5011977;28;20468;-70
2021/06/30 02:35:43;;;;;;;0.50;0.50;;;;;;;;;;5012038;28;20107;-70
2021/06/30 02:38:15;;;;;;;0.50;0.50;;;;;;;;;;5011871;28;20423;-70
2021/06/30 02:40:47;;;;;;;2.80;0.80;;;;;;;;;;5011690;28;20058;-70
2021/06/30 02:43:19;;;;;;;0.57;0.55;;;;;;;;;;5011971;28;20108;-70
2021/06/30 02:45:50;;;;;;;1.23;0.90;;;;;;;;;;5011732;28;20104;-70
2021/06/30 02:48:23;;;;;;;1.52;0.50;;;;;;;;;;5011965;28;20058;-70
2021/06/30 02:50:55;;;;;;;1.13;0.60;;;;;;;;;;4991841;28;20054;-70
2021/06/30 02:53:27;;;;;;;0.50;0.50;;;;;;;;;;5007941;28;20073;-70
2021/06/30 02:56:01;;;;;;;0.50;0.30;;;;;;;;;;5011474;28;20540;-70
2021/06/30 02:58:33;;;;;;;2.13;0.52;;;;;;;;;;5011759;28;20061;-70
2021/06/30 03:01:04;;;;;;;1.90;0.30;;;;;;;;;;5011465;28;20096;-70
2021/06/30 03:03:36;;;;;;;0.95;0.93;;;;;;;;;;5011661;28;20046;-70
2021/06/30 03:06:07;;;;;;;0.45;0.45;;;;;;;;;;5011535;28;20119;-70
2021/06/30 03:08:42;;;;;;;0.57;0.32;;;;;;;;;;5011642;28;20054;-70
2021/06/30 03:11:13;;;;;;;1.88;0.32;;;;;;;;;;5030972;23;20535;-69
2021/06/30 03:13:45;;;;;;;1.20;0.30;;;;;;;;;;5041127;28;20045;-69
2021/06/30 03:16:17;;;;;;;0.20;0.20;;;;;;;;;;5040347;28;20103;-68
2021/06/30 03:18:48;;;;;;;0.80;0.30;;;;;;;;;;5041865;28;20053;-68
2021/06/30 03:21:20;;;;;;;0.75;0.30;;;;;;;;;;5041900;28;20049;-69
2021/06/30 03:23:51;;;;;;;0.30;0.22;;;;;;;;;;5041511;28;20045;-69
2021/06/30 03:26:23;;;;;;;1.98;0.38;;;;;;;;;;5042602;28;20080;-69
2021/06/30 03:28:54;;;;;;;0.32;0.30;;;;;;;;;;5040816;28;20076;-70
2021/06/30 03:31:26;;;;;;;0.43;0.40;;;;;;;;;;5042082;28;20053;-68
2021/06/30 03:33:57;;;;;;;0.90;0.30;;;;;;;;;;5041846;28;20103;-69
2021/06/30 03:36:29;;;;;;;0.50;0.20;;;;;;;;;;5041480;28;20048;-68
2021/06/30 03:39:00;;;;;;;0.20;0.20;;;;;;;;;;5034713;28;20046;-68
2021/06/30 03:41:32;;;;;;;3.05;0.30;;;;;;;;;;5019205;28;20050;-68
2021/06/30 03:44:04;;;;;;;1.30;0.20;;;;;;;;;;5020511;28;20100;-68
2021/06/30 03:46:35;;;;;;;0.28;0.28;;;;;;;;;;5019883;28;20184;-68
2021/06/30 03:49:06;;;;;;;0.20;0.20;;;;;;;;;;5023154;28;20057;-68
2021/06/30 03:51:38;;;;;;;1.05;0.35;;;;;;;;;;5040602;28;20049;-68
2021/06/30 03:54:10;;;;;;;0.20;0.20;;;;;;;;;;5044256;28;20046;-69
2021/06/30 03:56:41;;;;;;;0.40;0.40;;;;;;;;;;5044081;28;20535;-69
2021/06/30 03:59:13;;;;;;;0.30;0.30;;;;;;;;;;5041356;28;20041;-69
2021/06/30 04:01:44;;;;;;;0.10;0.10;;;;;;;;;;5037734;28;20058;-69
2021/06/30 04:04:16;;;;;;;0.85;0.30;;;;;;;;;;5022109;28;20471;-69
2021/06/30 04:06:48;;;;;;;1.95;0.35;;;;;;;;;;5023375;28;20050;-69
2021/06/30 04:09:19;;;;;;;0.22;0.20;;;;;;;;;;5022920;28;20084;-69
2021/06/30 04:11:51;;;;;;;0.15;0.15;;;;;;;;;;5022376;28;20089;-69
2021/06/30 04:14:22;;;;;;;0.63;0.40;;;;;;;;;;5023113;28;20049;-69
2021/06/30 04:16:54;;;;;;;2.15;0.20;;;;;;;;;;5023191;28;20058;-69
2021/06/30 04:19:25;;;;;;;0.55;0.47;;;;;;;;;;5023158;28;20050;-69
2021/06/30 04:21:57;;;;;;;0.60;0.32;;;;;;;;;;5022184;28;20050;-69
2021/06/30 04:24:28;;;;;;;0.40;0.40;;;;;;;;;;5022807;28;20108;-69
2021/06/30 04:27:00;;;;;;;0.40;0.40;;;;;;;;;;5022773;28;20072;-69
2021/06/30 04:29:31;;;;;;;0.75;0.35;;;;;;;;;;5022967;28;20061;-68
2021/06/30 04:32:04;;;;;;;0.52;0.20;;;;;;;;;;5014414;28;20049;-68
2021/06/30 04:34:35;;;;;;;0.63;0.40;;;;;;;;;;5014256;28;20057;-68
2021/06/30 04:37:07;;;;;;;1.52;0.80;;;;;;;;;;5013389;28;20054;-69
2021/06/30 04:39:38;;;;;;;0.35;0.35;;;;;;;;;;5013904;28;20061;-69
2021/06/30 04:42:10;;;;;;;0.40;0.40;;;;;;;;;;5013462;28;20058;-69
2021/06/30 04:44:41;;;;;;;0.30;0.30;;;;;;;;;;5013464;28;20096;-69
2021/06/30 04:47:13;;;;;;;0.68;0.40;;;;;;;;;;5013593;28;20109;-69
2021/06/30 04:49:44;;;;;;;0.82;0.45;;;;;;;;;;5012544;28;20476;-69
2021/06/30 04:52:16;;;;;;;0.60;0.40;;;;;;;;;;5013732;28;20061;-69
2021/06/30 04:54:47;;;;;;;1.00;0.25;;;;;;;;;;5013698;28;20500;-68
2021/06/30 04:57:19;;;;;;;1.40;0.60;;;;;;;;;;5013462;28;20053;-69
2021/06/30 04:59:50;;;;;;;1.38;0.30;;;;;;;;;;5019494;28;20096;-69
2021/06/30 05:02:22;;;;;;;1.10;0.45;;;;;;;;;;5013155;28;20096;-69
2021/06/30 05:04:53;;;;;;;0.30;0.30;;;;;;;;;;5013104;28;20496;-69
2021/06/30 05:07:25;;;;;;;1.10;0.30;;;;;;;;;;5013485;28;20075;-69
2021/06/30 05:09:56;;;;;;;1.45;0.38;;;;;;;;;;5014037;28;20567;-67
2021/06/30 05:12:28;;;;;;;0.57;0.40;;;;;;;;;;5012963;28;20112;-67
2021/06/30 05:14:59;;;;;;;0.45;0.40;;;;;;;;;;5012936;28;20069;-67
2021/06/30 05:17:31;;;;;;;1.42;0.30;;;;;;;;;;5013159;28;20095;-67
2021/06/30 05:20:03;;;;;;;0.45;0.30;;;;;;;;;;5012781;28;20084;-67
2021/06/30 05:22:34;;;;;;;0.20;0.20;;;;;;;;;;5012849;28;20471;-67
2021/06/30 05:25:06;;;;;;;0.80;0.50;;;;;;;;;;5012761;28;20128;-67
2021/06/30 05:27:38;;;;;;;2.35;0.30;;;;;;;;;;5013140;28;20123;-67
2021/06/30 05:30:10;;;;;;;1.90;0.40;;;;;;;;;;5014291;28;20046;-67
2021/06/30 05:32:41;;;;;;;0.70;0.45;;;;;;;;;;5012844;28;20049;-68
2021/06/30 05:35:13;;;;;;;0.80;0.70;;;;;;;;;;5018997;28;20404;-67
2021/06/30 05:37:44;;;;;;;0.75;0.57;;;;;;;;;;5032472;28;20061;-67
2021/06/30 05:40:16;;;;;;;3.17;0.73;;;;;;;;;;5032292;28;20049;-67
2021/06/30 05:42:48;;;;;;;0.20;0.20;;;;;;;;;;5032371;28;20065;-67
2021/06/30 05:45:19;;;;;;;1.25;0.30;;;;;;;;;;5032151;28;20492;-67
2021/06/30 05:47:51;;;;;;;0.30;0.30;;;;;;;;;;5032069;28;20057;-67
2021/06/30 05:50:22;;;;;;;0.38;0.30;;;;;;;;;;5032289;28;20080;-67
2021/06/30 05:52:54;;;;;;;0.35;0.30;;;;;;;;;;5032014;28;20060;-67
2021/06/30 05:55:25;;;;;;;1.58;0.77;;;;;;;;;;5032078;28;20060;-67
2021/06/30 05:57:57;;;;;;;1.13;0.30;;;;;;;;;;5032201;28;20061;-67
2021/06/30 06:00:28;;;;;;;0.73;0.40;;;;;;;;;;5031946;28;20049;-67
2021/06/30 06:03:00;;;;;;;3.30;0.30;;;;;;;;;;5031425;28;20061;-67
2021/06/30 06:05:27;;;;;;;0.73;0.40;;;;;;;;;;5032311;28;20049;-67
2021/06/30 06:07:58;;;;;;;1.02;0.50;;;;;;;;;;5032020;28;20135;-67
2021/06/30 06:10:30;;;;;;;1.75;0.60;;;;;;;;;;5031388;28;20049;-67
2021/06/30 06:13:01;;;;;;;1.08;0.65;;;;;;;;;;5031581;28;20103;-67
2021/06/30 06:15:34;;;;;;;0.65;0.65;;;;;;;;;;5031964;28;20562;-67
2021/06/30 06:18:08;;;;;;;0.50;0.40;;;;;;;;;;5031841;28;20053;-67
2021/06/30 06:20:40;;;;;;;0.30;0.30;;;;;;;;;;5031818;28;20107;-67
2021/06/30 06:23:12;;;;;;;0.35;0.35;;;;;;;;;;5031576;28;20115;-66
2021/06/30 06:25:43;;;;;;;0.70;0.40;;;;;;;;;;5029323;28;20099;-66
2021/06/30 06:28:15;;;;;;;3.45;2.45;;;;;;;;;;5029547;28;20479;-66
2021/06/30 06:30:49;;;;;;;3.83;1.30;;;;;;;;;;5029668;28;20147;-66
2021/06/30 06:33:21;;;;;;;2.05;1.00;;;;;;;;;;5024069;28;20041;-66
2021/06/30 06:35:53;;;;;;;2.15;1.65;;;;;;;;;;5010131;28;20046;-66
2021/06/30 06:38:24;;;;;;;5.20;1.00;;;;;;;;;;5015454;28;20564;-63
2021/06/30 06:40:56;;;;;;;2.03;0.88;;;;;;;;;;5027677;28;20146;-64
2021/06/30 06:43:27;;;;;;;1.10;0.70;;;;;;;;;;5027746;28;20053;-64
2021/06/30 06:45:59;;;;;;;2.05;0.63;;;;;;;;;;5012149;28;20053;-64
2021/06/30 06:48:30;;;;;;;1.50;0.70;;;;;;;;;;5031383;28;20103;-64
2021/06/30 06:51:02;;;;;;;1.80;0.60;;;;;;;;;;5028724;28;20508;-64
2021/06/30 06:53:34;;;;;;;1.98;0.47;;;;;;;;;;5030660;28;20045;-64
2021/06/30 06:56:09;;;;;;;0.68;0.30;;;;;;;;;;5031896;28;20050;-64
2021/06/30 06:58:41;;;;;;;3.30;0.30;;;;;;;;;;5028739;28;20053;-64
2021/06/30 07:01:12;;;;;;;0.30;0.30;;;;;;;;;;5031138;28;20119;-64
2021/06/30 07:03:44;;;;;;;1.58;0.70;;;;;;;;;;5046033;28;20501;-64
2021/06/30 07:06:16;;;;;;;0.38;0.38;;;;;;;;;;5032266;28;20057;-64
2021/06/30 07:08:47;;;;;;;1.65;0.40;;;;;;;;;;5031827;28;20053;-63
2021/06/30 07:11:19;;;;;;;0.75;0.45;;;;;;;;;;5031527;28;20050;-63
2021/06/30 07:13:51;;;;;;;2.00;0.45;;;;;;;;;;5044644;28;20088;-63
2021/06/30 07:16:22;;;;;;;0.70;0.35;;;;;;;;;;5030328;28;20049;-63
2021/06/30 07:18:54;;;;;;;0.82;0.40;;;;;;;;;;5031555;28;20056;-64
2021/06/30 07:21:25;;;;;;;0.32;0.15;;;;;;;;;;5030423;28;20049;-64
2021/06/30 07:23:57;;;;;;;0.95;0.40;;;;;;;;;;5031178;28;20049;-63
2021/06/30 07:26:28;;;;;;;2.45;0.30;;;;;;;;;;5030136;28;20053;-64
2021/06/30 07:29:00;;;;;;;0.20;0.20;;;;;;;;;;5030845;28;20052;-63
2021/06/30 07:31:31;;;;;;;0.77;0.22;;;;;;;;;;5027467;28;20049;-64
2021/06/30 07:34:04;;;;;;;0.30;0.30;;;;;;;;;;5030864;28;20038;-64
2021/06/30 07:36:35;;;;;;;1.00;0.30;;;;;;;;;;5030664;28;20053;-64
2021/06/30 07:39:08;;;;;;;0.50;0.32;;;;;;;;;;5031483;28;20049;-63
2021/06/30 07:41:39;;;;;;;0.55;0.28;;;;;;;;;;5027478;28;20428;-63
2021/06/30 07:44:11;;;;;;;1.23;0.40;;;;;;;;;;5027875;28;20451;-64
2021/06/30 07:46:37;;;;;;;0.93;0.40;;;;;;;;;;5031218;28;20140;-63
2021/06/30 07:49:06;;;;;;;0.32;0.30;;;;;;;;;;5030944;28;20053;-64
2021/06/30 07:51:33;;;;;;;1.33;0.20;;;;;;;;;;5031193;28;20080;-64
2021/06/30 07:53:59;;;;;;;0.40;0.20;;;;;;;;;;5030699;28;20133;-64
2021/06/30 07:56:36;;;;;;;1.27;0.40;;;;;;;;;;5030880;28;20121;-64
2021/06/30 07:59:09;;;;;;;0.30;0.20;;;;;;;;;;5029982;28;20041;-64
2021/06/30 08:01:36;;;;;;;1.95;0.20;;;;;;;;;;5031034;28;20081;-64
2021/06/30 08:04:05;;;;;;;0.80;0.30;;;;;;;;;;5030397;28;20404;-64
2021/06/30 08:06:32;;;;;;;0.10;0.10;;;;;;;;;;5028752;28;20076;-64
2021/06/30 08:08:58;;;;;;;1.27;0.20;;;;;;;;;;5028526;28;20053;-63
2021/06/30 08:11:25;;;;;;;1.23;0.40;;;;;;;;;;5030569;28;20497;-64
2021/06/30 08:13:52;;;;;;;1.05;0.30;;;;;;;;;;5031234;28;20049;-64
2021/06/30 08:16:20;;;;;;;1.23;0.20;;;;;;;;;;5030471;28;20137;-66
2021/06/30 08:18:47;;;;;;;0.10;0.10;;;;;;;;;;5027313;28;20485;-65
2021/06/30 08:21:15;;;;;;;0.28;0.20;;;;;;;;;;5029957;28;20073;-64
2021/06/30 08:23:41;;;;;;;0.55;0.30;;;;;;;;;;5030744;28;20085;-63
2021/06/30 08:26:10;;;;;;;0.57;0.40;;;;;;;;;;5030570;28;20595;-63
2021/06/30 08:28:37;;;;;;;0.65;0.20;;;;;;;;;;5030259;28;20099;-64
2021/06/30 08:31:04;;;;;;;0.40;0.20;;;;;;;;;;5027552;28;20045;-63
2021/06/30 08:33:31;;;;;;;1.40;0.35;;;;;;;;;;5029084;28;20088;-63
2021/06/30 08:35:58;;;;;;;0.32;0.25;;;;;;;;;;5030425;28;20072;-63
2021/06/30 08:38:24;;;;;;;0.17;0.17;;;;;;;;;;5029997;28;20481;-64
2021/06/30 08:40:58;;;;;;;0.45;0.10;;;;;;;;;;5025511;28;20501;-69
2021/06/30 08:43:26;;;;;;;0.20;0.20;;;;;;;;;;5015236;28;20106;-67
2021/06/30 08:45:52;;;;;;;0.30;0.20;;;;;;;;;;5029644;28;20169;-69
2021/06/30 08:48:19;;;;;;;0.40;0.30;;;;;;;;;;5029336;28;20077;-62
2021/06/30 08:50:47;;;;;;;0.20;0.20;;;;;;;;;;5030008;28;20470;-63
2021/06/30 08:53:14;;;;;;;0.10;0.10;;;;;;;;;;5023651;28;20057;-64
2021/06/30 08:55:44;;;;;;;0.13;0.13;;;;;;;;;;5028202;28;20506;-63
2021/06/30 08:58:12;;;;;;;0.55;0.20;;;;;;;;;;5030222;28;20072;-63
2021/06/30 09:00:41;;;;;;;0.35;0.22;;;;;;;;;;5030412;28;20081;-63
2021/06/30 09:03:18;;;;;;;0.57;0.20;;;;;;;;;;5028779;28;20076;-63
2021/06/30 09:08:36;;;;;;;4.63;0.35;;;;;;;;;;5028284;28;20095;-65
2021/06/30 09:11:10;;;;;;;0.60;0.40;;;;;;;;;;5030279;28;20073;-65
2021/06/30 09:13:37;;;;;;;0.65;0.30;;;;;;;;;;5016174;23;20074;-66
2021/06/30 09:16:04;;;;;;;0.55;0.20;;;;;;;;;;4987546;28;20482;-66
2021/06/30 09:18:34;;;;;;;0.20;0.20;;;;;;;;;;4983455;28;20513;-66
2021/06/30 09:21:15;;;;;;;0.20;0.20;;;;;;;;;;4985972;28;20309;-66
2021/06/30 09:24:02;;;;;;;0.20;0.20;;;;;;;;;;4977564;28;20520;-68
2021/06/30 09:26:33;;;;;;;0.30;0.20;;;;;;;;;;4983816;28;20086;-66
2021/06/30 09:29:11;;;;;;;1.20;0.30;;;;;;;;;;4974658;28;20085;-70
2021/06/30 09:31:41;;;;;;;0.20;0.20;;;;;;;;;;4977220;28;20085;-70
2021/06/30 09:34:07;;;;;;;0.52;0.22;;;;;;;;;;4981402;28;20092;-67
2021/06/30 09:36:50;;;;;;;0.30;0.30;;;;;;;;;;4981344;28;20090;-72
2021/06/30 09:39:16;;;;;;;0.25;0.20;;;;;;;;;;4977934;28;20128;-74
2021/06/30 09:41:44;;;;;;;0.05;0.05;;;;;;;;;;4982785;28;20137;-71
2021/06/30 09:44:12;;;;;;;0.57;0.10;;;;;;;;;;4977773;28;20146;-73
2021/06/30 09:46:40;;;;;;;0.28;0.22;;;;;;;;;;4991604;28;20429;-74
2021/06/30 09:49:15;;;;;;;1.25;0.28;;;;;;;;;;4977393;28;20078;-75
2021/06/30 09:51:44;;;;;;;0.22;0.10;;;;;;;;;;4976527;28;20078;-73
2021/06/30 09:54:13;;;;;;;0.40;0.20;;;;;;;;;;4981948;28;20064;-72
2021/06/30 09:56:54;;;;;;;0.28;0.28;;;;;;;;;;4981608;28;20527;-70
2021/06/30 09:59:23;;;;;;;0.35;0.17;;;;;;;;;;4980240;28;20043;-69
2021/06/30 10:02:02;;;;;;;0.10;0.10;;;;;;;;;;4978712;28;20133;-72
2021/06/30 10:04:32;;;;;;;0.10;0.10;;;;;;;;;;4978959;28;20050;-71
2021/06/30 10:07:04;;;;;;;0.20;0.20;;;;;;;;;;4979965;28;20054;-72
2021/06/30 10:09:31;;;;;;;0.40;0.38;;;;;;;;;;4995016;28;20104;-72
2021/06/30 10:12:05;;;;;;;0.10;0.10;;;;;;;;;;4979588;28;20050;-74
2021/06/30 10:14:32;;;;;;;0.28;0.20;;;;;;;;;;4973540;28;20058;-74
2021/06/30 10:17:00;;;;;;;0.80;0.52;;;;;;;;;;4981554;28;20050;-74
2021/06/30 10:20:09;;;;;;;0.80;0.10;;;;;;;;;;4996105;28;20094;-74
2021/06/30 10:22:50;;;;;;;0.25;0.25;;;;;;;;;;4971604;28;20070;-71
2021/06/30 10:25:17;;;;;;;0.17;0.17;;;;;;;;;;4993856;28;20110;-72
2021/06/30 10:27:44;;;;;;;1.60;0.50;;;;;;;;;;4980459;28;20051;-70
2021/06/30 10:30:11;;;;;;;0.40;0.30;;;;;;;;;;4980356;28;20074;-71
2021/06/30 10:32:53;;;;;;;0.40;0.30;;;;;;;;;;4981654;28;20090;-72
2021/06/30 10:35:23;;;;;;;2.17;0.13;;;;;;;;;;4978550;28;20097;-72
2021/06/30 10:37:54;;;;;;;0.10;0.10;;;;;;;;;;4976270;28;20413;-73
2021/06/30 10:40:28;;;;;;;0.30;0.30;;;;;;;;;;4947051;28;20089;-75
2021/06/30 10:43:10;;;;;;;0.40;0.30;;;;;;;;;;4967437;28;20351;-68
2021/06/30 10:45:37;;;;;;;0.20;0.20;;;;;;;;;;4980146;28;20050;-73
2021/06/30 10:48:09;;;;;;;1.95;0.10;;;;;;;;;;4978892;28;20051;-71
2021/06/30 10:50:43;;;;;;;0.63;0.20;;;;;;;;;;4980847;28;20085;-71
2021/06/30 10:53:11;;;;;;;0.10;0.10;;;;;;;;;;4991133;28;20796;-69
2021/06/30 10:55:40;;;;;;;0.20;0.10;;;;;;;;;;4977874;28;20051;-72
2021/06/30 10:58:13;;;;;;;0.50;0.28;;;;;;;;;;4995310;28;20141;-67
2021/06/30 11:00:45;;;;;;;1.17;0.20;;;;;;;;;;4979204;28;20074;-72
2021/06/30 11:03:46;;;;;;;0.20;0.20;;;;;;;;;;4979574;28;20106;-72
2021/06/30 11:06:17;;;;;;;0.10;0.10;;;;;;;;;;4959879;28;20101;-70
2021/06/30 11:08:48;;;;;;;0.35;0.15;;;;;;;;;;4978704;28;20133;-69
2021/06/30 11:11:18;;;;;;;0.10;0.10;;;;;;;;;;4977169;28;20050;-71
2021/06/30 11:13:54;;;;;;;0.32;0.20;;;;;;;;;;4979987;28;20108;-69
2021/06/30 11:16:39;;;;;;;2.10;0.30;;;;;;;;;;4975324;28;20077;-66
2021/06/30 11:19:15;;;;;;;2.45;0.30;;;;;;;;;;4978338;28;20072;-66
2021/06/30 11:21:51;;;;;;;0.28;0.22;;;;;;;;;;4980338;28;20078;-68
2021/06/30 11:24:43;;;;;;;0.32;0.28;;;;;;;;;;4979323;28;20077;-74
2021/06/30 11:27:47;;;;;;;1.13;0.40;;;;;;;;;;4978789;28;20117;-75
2021/06/30 11:30:27;;;;;;;0.90;0.60;;;;;;;;;;4993754;28;20050;-69
2021/06/30 11:32:54;;;;;;;1.33;0.40;;;;;;;;;;4985664;28;20050;-69
2021/06/30 11:35:26;;;;;;;1.05;0.40;;;;;;;;;;4983964;28;20125;-69
2021/06/30 11:38:12;;;;;;;0.70;0.25;;;;;;;;;;4984738;28;20086;-69
2021/06/30 11:40:47;;;;;;;0.30;0.30;;;;;;;;;;4990409;28;20464;-69
2021/06/30 11:43:18;;;;;;;0.30;0.30;;;;;;;;;;4987425;28;20081;-69
2021/06/30 11:45:46;;;;;;;1.35;0.40;;;;;;;;;;4985256;28;20442;-69
2021/06/30 11:48:14;;;;;;;1.20;0.30;;;;;;;;;;4984691;28;20057;-69
2021/06/30 11:51:02;;;;;;;0.47;0.45;;;;;;;;;;4983090;28;20530;-69
2021/06/30 11:53:46;;;;;;;0.30;0.30;;;;;;;;;;4984895;28;20133;-69
2021/06/30 11:56:34;;;;;;;1.20;0.30;;;;;;;;;;4990364;28;20049;-69
2021/06/30 11:59:04;;;;;;;0.57;0.32;;;;;;;;;;4987186;28;20051;-68
2021/06/30 12:01:38;;;;;;;0.22;0.22;;;;;;;;;;4982489;28;20046;-69
2021/06/30 12:04:13;;;;;;;1.35;0.28;;;;;;;;;;4999021;28;20050;-69
2021/06/30 12:06:45;;;;;;;0.52;0.30;;;;;;;;;;4984218;28;20043;-69
2021/06/30 12:09:20;;;;;;;1.13;0.45;;;;;;;;;;4984439;28;20089;-69
2021/06/30 12:11:48;;;;;;;0.40;0.30;;;;;;;;;;4986830;28;20050;-69
2021/06/30 12:14:17;;;;;;;0.35;0.30;;;;;;;;;;4984259;28;20077;-69
2021/06/30 12:16:54;;;;;;;0.73;0.40;;;;;;;;;;4984060;28;20494;-68
2021/06/30 12:19:47;;;;;;;0.50;0.40;;;;;;;;;;4981784;28;20093;-69
2021/06/30 12:22:18;;;;;;;;;;;;;;;;;;4984758;28;20039;-69
2021/06/30 12:24:45;;;;;;;0.40;0.40;;;;;;;;;;4984151;28;19922;-69
2021/06/30 12:27:13;;;;;;;0.40;0.40;;;;;;;;;;4985749;28;20575;-69
2021/06/30 12:29:40;;;;;;;0.82;0.50;;;;;;;;;;4985195;28;20173;-69
2021/06/30 12:32:14;;;;;;;0.50;0.30;;;;;;;;;;4982821;28;20075;-69
2021/06/30 12:34:42;;;;;;;1.25;0.50;;;;;;;;;;4980122;28;20490;-69
2021/06/30 12:37:10;;;;;;;0.85;0.43;;;;;;;;;;4995077;28;20051;-69
2021/06/30 12:39:37;;;;;;;1.67;0.95;;;;;;;;;;4980992;28;20425;-69
2021/06/30 12:42:07;;;;;;;0.20;0.20;;;;;;;;;;4985659;28;20093;-69
2021/06/30 12:44:57;;;;;;;1.00;0.22;;;;;;;;;;4982097;28;20074;-69
2021/06/30 12:47:24;;;;;;;1.95;0.47;;;;;;;;;;4980843;28;20109;-69
2021/06/30 12:49:59;;;;;;;0.93;0.60;;;;;;;;;;4987805;28;20101;-68
2021/06/30 12:52:25;;;;;;;2.58;0.45;;;;;;;;;;4985766;28;20061;-69
2021/06/30 12:55:03;;;;;;;1.15;0.60;;;;;;;;;;4983029;28;20153;-69
2021/06/30 12:57:30;;;;;;;0.50;0.30;;;;;;;;;;4992868;28;20078;-69
2021/06/30 13:00:19;;;;;;;0.40;0.40;;;;;;;;;;4976492;28;20082;-69
2021/06/30 13:02:45;;;;;;;0.30;0.30;;;;;;;;;;4979555;28;20085;-69
2021/06/30 13:05:23;;;;;;;0.20;0.20;;;;;;;;;;4985952;28;20361;-69
2021/06/30 13:07:49;;;;;;;0.40;0.28;;;;;;;;;;4980188;28;20093;-69
2021/06/30 13:10:17;;;;;;;0.20;0.20;;;;;;;;;;4987209;28;20085;-69
2021/06/30 13:12:44;;;;;;;0.30;0.20;;;;;;;;;;4987193;28;20058;-68
2021/06/30 13:15:24;;;;;;;0.30;0.30;;;;;;;;;;4979172;28;20406;-69
2021/06/30 13:17:51;;;;;;;0.47;0.20;;;;;;;;;;4981760;28;20135;-70
2021/06/30 13:20:19;;;;;;;0.20;0.17;;;;;;;;;;4979450;28;20074;-69
2021/06/30 13:22:49;;;;;;;0.50;0.20;;;;;;;;;;4987093;28;20069;-69
2021/06/30 13:25:28;;;;;;;0.25;0.20;;;;;;;;;;4985976;28;20565;-69
2021/06/30 13:28:18;;;;;;;1.88;0.30;;;;;;;;;;4978811;28;20537;-68
2021/06/30 13:36:16;;;;;;;0.50;0.50;;;;;;;;;;4978912;28;20054;-70
2021/06/30 13:38:44;;;;;;;0.50;0.50;;;;;;;;;;4980064;28;20084;-71
2021/06/30 13:41:14;;;;;;;1.13;0.45;;;;;;;;;;4992531;28;20109;-69
2021/06/30 13:43:43;;;;;;;0.20;0.20;;;;;;;;;;4982628;28;20062;-71
2021/06/30 13:46:12;;;;;;;1.90;0.28;;;;;;;;;;4989742;28;20081;-75
2021/06/30 13:48:42;;;;;;;0.15;0.15;;;;;;;;;;4976937;28;20050;-71
2021/06/30 13:51:12;;;;;;;0.45;0.30;;;;;;;;;;4981718;28;20051;-69
2021/06/30 13:53:40;;;;;;;2.50;0.30;;;;;;;;;;4976779;28;20121;-69
2021/06/30 13:56:10;;;;;;;2.40;0.47;;;;;;;;;;4980537;28;20103;-69
2021/06/30 13:58:41;;;;;;;0.57;0.32;;;;;;;;;;4978059;28;20078;-71
2021/06/30 14:01:08;;;;;;;1.15;0.40;;;;;;;;;;4977045;28;20490;-70
2021/06/30 14:03:34;;;;;;;0.77;0.30;;;;;;;;;;4978414;28;20406;-71
2021/06/30 14:06:04;;;;;;;0.32;0.30;;;;;;;;;;4977991;28;20481;-70
2021/06/30 14:08:32;;;;;;;0.52;0.47;;;;;;;;;;4982953;28;20071;-69
2021/06/30 14:11:01;;;;;;;1.58;0.80;;;;;;;;;;4977166;28;20054;-68
2021/06/30 14:13:28;;;;;;;0.75;0.32;;;;;;;;;;4979506;28;20509;-68
2021/06/30 14:15:56;;;;;;;1.55;0.32;;;;;;;;;;4979477;28;20046;-69
2021/06/30 14:18:23;;;;;;;0.40;0.40;;;;;;;;;;4980462;28;20050;-68
2021/06/30 14:20:50;;;;;;;0.60;0.20;;;;;;;;;;4979237;28;20094;-69
2021/06/30 14:23:19;;;;;;;0.50;0.30;;;;;;;;;;4978771;28;20593;-67
2021/06/30 14:25:46;;;;;;;1.48;0.28;;;;;;;;;;4979638;28;20086;-68
2021/06/30 14:28:13;;;;;;;1.65;0.32;;;;;;;;;;4981473;28;20128;-67
2021/06/30 14:30:42;;;;;;;0.68;0.30;;;;;;;;;;4992005;28;20093;-67
2021/06/30 14:33:08;;;;;;;0.25;0.20;;;;;;;;;;4990357;28;20132;-68
2021/06/30 14:35:35;;;;;;;0.35;0.25;;;;;;;;;;4990045;28;20359;-67
2021/06/30 14:38:01;;;;;;;0.30;0.25;;;;;;;;;;4991568;28;20510;-68
2021/06/30 14:40:28;;;;;;;0.50;0.30;;;;;;;;;;4992210;28;20090;-68
2021/06/30 14:42:54;;;;;;;2.67;0.40;;;;;;;;;;4992004;28;20093;-68
2021/06/30 14:45:27;;;;;;;0.50;0.32;;;;;;;;;;4992228;28;20046;-68
2021/06/30 14:47:59;;;;;;;1.25;0.30;;;;;;;;;;4991026;28;20083;-68
2021/06/30 14:50:27;;;;;;;0.60;0.30;;;;;;;;;;4992244;28;20054;-67
2021/06/30 14:52:54;;;;;;;0.77;0.28;;;;;;;;;;4991679;28;20085;-67
2021/06/30 14:55:21;;;;;;;0.95;0.40;;;;;;;;;;4992008;28;20097;-68
2021/06/30 14:57:47;;;;;;;1.13;0.40;;;;;;;;;;4992113;28;20406;-67
2021/06/30 15:00:15;;;;;;;0.43;0.40;;;;;;;;;;4991938;28;20081;-68
2021/06/30 15:02:42;;;;;;;0.32;0.25;;;;;;;;;;4990395;28;20070;-67
2021/06/30 15:05:09;;;;;;;0.25;0.25;;;;;;;;;;4991798;28;20058;-68
2021/06/30 15:07:36;;;;;;;0.80;0.28;;;;;;;;;;4994219;28;20042;-68
2021/06/30 15:10:06;;;;;;;1.85;0.30;;;;;;;;;;4995544;28;20054;-67
2021/06/30 15:12:32;;;;;;;0.32;0.30;;;;;;;;;;5026538;23;20086;-69
2021/06/30 15:14:59;;;;;;;0.95;0.32;;;;;;;;;;4995101;28;20058;-66
2021/06/30 15:17:26;;;;;;;0.20;0.20;;;;;;;;;;4995750;28;20049;-66